Time;durP1;ratioP1;P1;durP2;ratioP2;P2;SDS_P1;SDS_P2;PMS_P1;PMS_P2;Temp;Humidity;BMP_temperature;BMP_pressure;BME280_temperature;BME280_humidity;BME280_pressure;Samples;Min_cycle;Max_cycle;Signal;HPM_P1;HPM_P2
2021/11/06 00:00:51;;;;;;;50.20;25.60;;;;;;;;;;4432653;32;20308;-57
2021/11/06 00:03:16;;;;;;;48.00;25.23;;;;;;;;;;4432329;32;20380;-56
2021/11/06 00:05:42;;;;;;;56.57;27.30;;;;;;;;;;4428195;32;20361;-56
2021/11/06 00:08:07;;;;;;;53.43;26.10;;;;;;;;;;4417974;32;20223;-56
2021/11/06 00:10:33;;;;;;;57.43;26.90;;;;;;;;;;4418153;32;20288;-57
2021/11/06 00:12:58;;;;;;;60.37;27.30;;;;;;;;;;4418231;32;20277;-56
2021/11/06 00:15:24;;;;;;;51.83;26.13;;;;;;;;;;4421995;32;20296;-56
2021/11/06 00:17:50;;;;;;;50.37;22.13;;;;;;;;;;4433596;32;20228;-56
2021/11/06 00:20:16;;;;;;;40.37;18.63;;;;;;;;;;4433461;32;20348;-57
2021/11/06 00:22:42;;;;;;;36.10;17.40;;;;;;;;;;4433227;32;20241;-56
2021/11/06 00:25:10;;;;;;;33.57;17.37;;;;;;;;;;4431593;32;20326;-57
2021/11/06 00:27:38;;;;;;;41.83;17.07;;;;;;;;;;4432245;32;20220;-56
2021/11/06 00:30:06;;;;;;;35.73;18.97;;;;;;;;;;4433766;32;20268;-55
2021/11/06 00:32:32;;;;;;;47.03;20.57;;;;;;;;;;4433691;32;20276;-56
2021/11/06 00:34:58;;;;;;;46.33;21.40;;;;;;;;;;4433197;32;20224;-55
2021/11/06 00:37:24;;;;;;;45.57;20.17;;;;;;;;;;4433300;32;20303;-55
2021/11/06 00:39:50;;;;;;;38.67;19.07;;;;;;;;;;4433413;32;20305;-56
2021/11/06 00:42:16;;;;;;;33.50;16.53;;;;;;;;;;4432986;32;20233;-56
2021/11/06 00:44:41;;;;;;;41.07;19.90;;;;;;;;;;4432890;32;20284;-57
2021/11/06 00:47:07;;;;;;;44.97;19.73;;;;;;;;;;4433511;32;20236;-55
2021/11/06 00:49:33;;;;;;;41.43;20.87;;;;;;;;;;4433304;32;20334;-55
2021/11/06 00:51:59;;;;;;;33.50;17.37;;;;;;;;;;4433073;32;20766;-56
2021/11/06 00:54:24;;;;;;;40.20;18.60;;;;;;;;;;4431954;32;20343;-55
2021/11/06 00:56:50;;;;;;;42.47;18.83;;;;;;;;;;4433298;32;20351;-55
2021/11/06 00:59:15;;;;;;;46.33;18.43;;;;;;;;;;4433102;32;20367;-55
2021/11/06 01:01:41;;;;;;;34.37;19.10;;;;;;;;;;4432913;32;20296;-56
2021/11/06 01:04:07;;;;;;;36.67;18.07;;;;;;;;;;4432021;32;20346;-56
2021/11/06 01:06:32;;;;;;;50.23;24.53;;;;;;;;;;4422722;32;20308;-56
2021/11/06 01:08:58;;;;;;;61.83;31.60;;;;;;;;;;4420755;32;20744;-56
2021/11/06 01:11:24;;;;;;;63.83;31.57;;;;;;;;;;4419949;32;20292;-57
2021/11/06 01:13:50;;;;;;;51.03;25.60;;;;;;;;;;4420774;32;20311;-57
2021/11/06 01:16:15;;;;;;;47.03;24.53;;;;;;;;;;4429429;32;20236;-56
2021/11/06 01:18:42;;;;;;;45.03;22.37;;;;;;;;;;4436312;32;20317;-56
2021/11/06 01:21:08;;;;;;;43.13;22.33;;;;;;;;;;4436138;32;20236;-56
2021/11/06 01:23:34;;;;;;;41.73;21.83;;;;;;;;;;4436230;32;20278;-57
2021/11/06 01:26:00;;;;;;;54.27;24.47;;;;;;;;;;4434371;32;20244;-57
2021/11/06 01:28:25;;;;;;;48.80;22.90;;;;;;;;;;4436027;32;20300;-56
2021/11/06 01:30:51;;;;;;;48.73;21.87;;;;;;;;;;4436386;32;20711;-55
2021/11/06 01:33:16;;;;;;;50.10;23.90;;;;;;;;;;4435789;32;20660;-56
2021/11/06 01:35:42;;;;;;;51.27;25.27;;;;;;;;;;4435723;32;20291;-57
2021/11/06 01:38:08;;;;;;;59.40;28.87;;;;;;;;;;4435661;32;20217;-56
2021/11/06 01:40:33;;;;;;;53.83;26.60;;;;;;;;;;4435411;32;20287;-56
2021/11/06 01:42:59;;;;;;;44.60;21.47;;;;;;;;;;4435425;32;20270;-56
2021/11/06 01:45:25;;;;;;;52.43;23.03;;;;;;;;;;4435519;32;20359;-56
2021/11/06 01:47:51;;;;;;;51.83;27.43;;;;;;;;;;4436083;32;20263;-56
2021/11/06 01:50:19;;;;;;;54.53;24.93;;;;;;;;;;4435476;32;20296;-56
2021/11/06 01:52:45;;;;;;;50.07;25.27;;;;;;;;;;4435480;32;20259;-55
2021/11/06 01:55:11;;;;;;;52.03;25.30;;;;;;;;;;4435694;32;20299;-56
2021/11/06 01:57:38;;;;;;;62.07;25.20;;;;;;;;;;4435822;32;20680;-56
2021/11/06 02:00:13;;;;;;;47.27;22.63;;;;;;;;;;4435097;32;20323;-56
2021/11/06 02:02:41;;;;;;;46.13;21.67;;;;;;;;;;4435422;32;20248;-55
2021/11/06 02:05:07;;;;;;;48.60;24.37;;;;;;;;;;4434092;32;20208;-55
2021/11/06 02:07:33;;;;;;;44.93;18.87;;;;;;;;;;4420074;32;20749;-54
2021/11/06 02:09:59;;;;;;;46.43;22.80;;;;;;;;;;4420239;32;20335;-56
2021/11/06 02:12:26;;;;;;;39.60;18.90;;;;;;;;;;4419987;32;20508;-56
2021/11/06 02:14:51;;;;;;;40.17;18.43;;;;;;;;;;4420042;32;20262;-56
2021/11/06 02:17:17;;;;;;;34.67;18.83;;;;;;;;;;4434967;32;20237;-57
2021/11/06 02:19:42;;;;;;;40.20;18.60;;;;;;;;;;4435114;32;20694;-56
2021/11/06 02:22:08;;;;;;;37.97;17.43;;;;;;;;;;4434961;32;20290;-56
2021/11/06 02:24:33;;;;;;;36.70;17.60;;;;;;;;;;4434766;32;20348;-56
2021/11/06 02:26:59;;;;;;;40.80;17.87;;;;;;;;;;4435312;32;20618;-56
2021/11/06 02:29:24;;;;;;;39.67;21.80;;;;;;;;;;4435470;32;20295;-55
2021/11/06 02:31:50;;;;;;;38.77;19.97;;;;;;;;;;4435343;32;20229;-56
2021/11/06 02:34:15;;;;;;;30.03;16.40;;;;;;;;;;4434719;32;20585;-57
2021/11/06 02:36:41;;;;;;;24.47;14.87;;;;;;;;;;4433645;32;20297;-56
2021/11/06 02:39:08;;;;;;;35.03;15.30;;;;;;;;;;4435052;32;20287;-55
2021/11/06 02:41:33;;;;;;;29.67;15.60;;;;;;;;;;4435004;32;20817;-55
2021/11/06 02:44:07;;;;;;;35.23;16.93;;;;;;;;;;4435001;32;20291;-58
2021/11/06 02:46:35;;;;;;;30.20;15.93;;;;;;;;;;4434751;32;20753;-55
2021/11/06 02:49:00;;;;;;;33.33;16.07;;;;;;;;;;4434682;32;20293;-56
2021/11/06 02:51:26;;;;;;;37.10;18.80;;;;;;;;;;4434693;32;20637;-56
2021/11/06 02:53:51;;;;;;;35.17;18.17;;;;;;;;;;4435125;32;20733;-57
2021/11/06 02:56:17;;;;;;;42.93;20.67;;;;;;;;;;4434250;32;20287;-56
2021/11/06 02:58:42;;;;;;;55.90;26.90;;;;;;;;;;4434430;32;20338;-55
2021/11/06 03:01:07;;;;;;;74.87;32.80;;;;;;;;;;4434386;32;20292;-54
2021/11/06 03:03:33;;;;;;;63.47;30.63;;;;;;;;;;4435374;32;20200;-55
2021/11/06 03:05:58;;;;;;;61.17;29.63;;;;;;;;;;4427597;32;20250;-55
2021/11/06 03:08:24;;;;;;;82.50;33.30;;;;;;;;;;4405350;32;20668;-56
2021/11/06 03:10:49;;;;;;;65.30;29.93;;;;;;;;;;4419531;32;20312;-55
2021/11/06 03:13:15;;;;;;;62.03;31.23;;;;;;;;;;4419131;32;20318;-56
2021/11/06 03:15:40;;;;;;;52.57;29.93;;;;;;;;;;4424180;32;20665;-56
2021/11/06 03:18:06;;;;;;;55.63;29.83;;;;;;;;;;4434387;32;20552;-56
2021/11/06 03:20:32;;;;;;;51.80;27.87;;;;;;;;;;4434550;32;20292;-55
2021/11/06 03:22:58;;;;;;;57.87;27.90;;;;;;;;;;4432652;32;20240;-56
2021/11/06 03:25:25;;;;;;;62.37;29.97;;;;;;;;;;4433740;32;20346;-57
2021/11/06 03:27:50;;;;;;;67.40;33.07;;;;;;;;;;4433111;32;20290;-56
2021/11/06 03:30:16;;;;;;;68.40;34.67;;;;;;;;;;4433482;32;20284;-56
2021/11/06 03:32:42;;;;;;;70.43;37.03;;;;;;;;;;4433212;32;20669;-55
2021/11/06 03:35:08;;;;;;;66.63;32.83;;;;;;;;;;4433834;32;20276;-56
2021/11/06 03:37:35;;;;;;;64.23;32.60;;;;;;;;;;4433813;32;20296;-57
2021/11/06 03:40:01;;;;;;;57.80;32.70;;;;;;;;;;4433738;32;20271;-57
2021/11/06 03:42:27;;;;;;;66.23;29.43;;;;;;;;;;4432573;32;20244;-56
2021/11/06 03:44:52;;;;;;;70.63;30.87;;;;;;;;;;4433783;32;20352;-56
2021/11/06 03:47:18;;;;;;;57.07;29.50;;;;;;;;;;4433403;32;20648;-56
2021/11/06 03:49:44;;;;;;;67.87;30.70;;;;;;;;;;4433861;32;20667;-58
2021/11/06 03:52:09;;;;;;;57.70;30.70;;;;;;;;;;4433720;32;20282;-56
2021/11/06 03:54:35;;;;;;;63.93;30.50;;;;;;;;;;4434119;32;20272;-57
2021/11/06 03:57:00;;;;;;;55.07;29.60;;;;;;;;;;4432528;32;20248;-56
2021/11/06 03:59:26;;;;;;;87.73;43.57;;;;;;;;;;4433666;32;20330;-55
2021/11/06 04:01:51;;;;;;;74.67;38.07;;;;;;;;;;4433339;32;20343;-56
2021/11/06 04:04:16;;;;;;;82.93;36.13;;;;;;;;;;4433772;32;20327;-55
2021/11/06 04:06:42;;;;;;;78.27;38.60;;;;;;;;;;4422115;32;20337;-56
2021/11/06 04:09:08;;;;;;;86.70;44.67;;;;;;;;;;4418203;32;20306;-56
2021/11/06 04:11:33;;;;;;;69.43;37.70;;;;;;;;;;4418002;32;20295;-56
2021/11/06 04:13:59;;;;;;;77.60;37.00;;;;;;;;;;4418334;32;20296;-56
2021/11/06 04:16:24;;;;;;;73.27;33.27;;;;;;;;;;4427650;32;20692;-56
2021/11/06 04:18:50;;;;;;;72.73;33.97;;;;;;;;;;4433501;32;20307;-57
2021/11/06 04:21:15;;;;;;;72.60;34.27;;;;;;;;;;4433283;32;20268;-56
2021/11/06 04:23:41;;;;;;;69.70;35.53;;;;;;;;;;4433533;32;20287;-56
2021/11/06 04:26:07;;;;;;;60.23;31.00;;;;;;;;;;4432766;32;20224;-56
2021/11/06 04:28:32;;;;;;;60.30;32.40;;;;;;;;;;4433401;32;20770;-57
2021/11/06 04:30:58;;;;;;;58.73;29.07;;;;;;;;;;4433540;32;20355;-56
2021/11/06 04:33:23;;;;;;;53.90;27.80;;;;;;;;;;4433473;32;20351;-55
2021/11/06 04:35:50;;;;;;;56.17;25.90;;;;;;;;;;4432109;32;20327;-55
2021/11/06 04:38:15;;;;;;;61.07;23.23;;;;;;;;;;4433138;32;20317;-57
2021/11/06 04:40:41;;;;;;;57.40;25.13;;;;;;;;;;4433131;32;20311;-56
2021/11/06 04:43:06;;;;;;;55.93;26.27;;;;;;;;;;4432682;32;20238;-55
2021/11/06 04:45:32;;;;;;;41.17;24.40;;;;;;;;;;4433295;32;20466;-57
2021/11/06 04:47:57;;;;;;;59.47;22.40;;;;;;;;;;4432892;32;20648;-57
2021/11/06 04:50:22;;;;;;;50.83;22.60;;;;;;;;;;4433137;32;20367;-56
2021/11/06 04:52:48;;;;;;;50.67;23.73;;;;;;;;;;4433560;32;20269;-56
2021/11/06 04:55:15;;;;;;;39.17;23.40;;;;;;;;;;4433142;32;20404;-57
2021/11/06 04:57:42;;;;;;;42.20;21.60;;;;;;;;;;4432919;32;20386;-55
2021/11/06 05:00:10;;;;;;;37.80;20.93;;;;;;;;;;4425581;32;20221;-57
2021/11/06 05:02:36;;;;;;;54.53;24.03;;;;;;;;;;4417686;32;20271;-56
2021/11/06 05:05:02;;;;;;;42.93;22.97;;;;;;;;;;4418251;32;20304;-57
2021/11/06 05:07:27;;;;;;;51.73;24.30;;;;;;;;;;4433147;32;20225;-56
2021/11/06 05:09:53;;;;;;;48.57;22.87;;;;;;;;;;4432843;32;20429;-56
2021/11/06 05:12:19;;;;;;;43.43;23.10;;;;;;;;;;4432832;32;20284;-56
2021/11/06 05:14:47;;;;;;;50.90;21.83;;;;;;;;;;4432939;32;20322;-57
2021/11/06 05:17:12;;;;;;;49.33;21.47;;;;;;;;;;4432558;32;20680;-56
2021/11/06 05:19:38;;;;;;;38.03;19.07;;;;;;;;;;4432222;32;20344;-57
2021/11/06 05:22:04;;;;;;;37.47;18.37;;;;;;;;;;4432908;32;20296;-56
2021/11/06 05:24:29;;;;;;;44.30;20.33;;;;;;;;;;4430776;32;20486;-57
2021/11/06 05:26:55;;;;;;;42.97;20.30;;;;;;;;;;4432627;32;20291;-56
2021/11/06 05:29:20;;;;;;;43.90;21.97;;;;;;;;;;4433000;32;20306;-56
2021/11/06 05:31:46;;;;;;;36.50;21.23;;;;;;;;;;4433052;32;20224;-56
2021/11/06 05:34:11;;;;;;;45.67;21.57;;;;;;;;;;4432717;32;20292;-57
2021/11/06 05:36:37;;;;;;;45.40;24.00;;;;;;;;;;4432745;32;20229;-56
2021/11/06 05:39:04;;;;;;;44.50;21.17;;;;;;;;;;4432886;32;20350;-57
2021/11/06 05:41:30;;;;;;;36.53;19.47;;;;;;;;;;4432743;32;20695;-55
2021/11/06 05:43:56;;;;;;;35.80;19.30;;;;;;;;;;4432478;32;20348;-57
2021/11/06 05:46:21;;;;;;;44.10;22.23;;;;;;;;;;4432591;32;20315;-56
2021/11/06 05:48:47;;;;;;;51.13;22.70;;;;;;;;;;4432676;32;20377;-56
2021/11/06 05:51:12;;;;;;;43.80;23.80;;;;;;;;;;4431126;32;20383;-56
2021/11/06 05:53:38;;;;;;;60.90;35.17;;;;;;;;;;4432912;32;20390;-55
2021/11/06 05:56:03;;;;;;;114.00;61.50;;;;;;;;;;4435740;32;20249;-56
2021/11/06 05:58:29;;;;;;;107.67;66.07;;;;;;;;;;4435773;32;20307;-56
2021/11/06 06:00:54;;;;;;;93.87;44.73;;;;;;;;;;4434571;32;20322;-56
2021/11/06 06:03:20;;;;;;;74.07;36.07;;;;;;;;;;4435305;32;20739;-56
2021/11/06 06:05:45;;;;;;;71.63;33.83;;;;;;;;;;4429560;32;20246;-55
2021/11/06 06:08:11;;;;;;;58.97;29.33;;;;;;;;;;4419335;32;20237;-55
2021/11/06 06:10:36;;;;;;;51.90;26.87;;;;;;;;;;4420005;32;20304;-57
2021/11/06 06:13:02;;;;;;;58.10;26.13;;;;;;;;;;4419200;32;20342;-57
2021/11/06 06:15:28;;;;;;;39.53;22.83;;;;;;;;;;4422875;32;20350;-56
2021/11/06 06:17:53;;;;;;;51.00;25.10;;;;;;;;;;4435530;32;20784;-56
2021/11/06 06:20:19;;;;;;;51.83;24.47;;;;;;;;;;4435278;32;20380;-58
2021/11/06 06:22:45;;;;;;;53.73;27.90;;;;;;;;;;4435396;32;20237;-57
2021/11/06 06:25:12;;;;;;;62.27;30.73;;;;;;;;;;4434906;32;20326;-57
2021/11/06 06:27:39;;;;;;;58.70;30.17;;;;;;;;;;4435299;32;20709;-56
2021/11/06 06:30:08;;;;;;;64.70;34.37;;;;;;;;;;4435326;32;20528;-56
2021/11/06 06:32:33;;;;;;;78.47;38.57;;;;;;;;;;4435596;32;20368;-55
2021/11/06 06:34:59;;;;;;;69.07;36.33;;;;;;;;;;4435313;32;20287;-56
2021/11/06 06:37:25;;;;;;;61.77;34.97;;;;;;;;;;4435030;32;20257;-56
2021/11/06 06:39:50;;;;;;;62.70;33.23;;;;;;;;;;4435187;32;20314;-58
2021/11/06 06:42:17;;;;;;;71.77;34.67;;;;;;;;;;4434490;32;20663;-56
2021/11/06 06:44:43;;;;;;;62.67;33.43;;;;;;;;;;4434622;32;20413;-56
2021/11/06 06:47:10;;;;;;;77.57;38.73;;;;;;;;;;4434512;32;20263;-56
2021/11/06 06:49:36;;;;;;;63.47;34.80;;;;;;;;;;4434636;32;20232;-56
2021/11/06 06:52:02;;;;;;;54.77;31.23;;;;;;;;;;4433374;32;20611;-55
2021/11/06 06:54:27;;;;;;;64.33;32.73;;;;;;;;;;4434806;32;20681;-55
2021/11/06 06:56:52;;;;;;;57.70;31.60;;;;;;;;;;4434762;32;20307;-56
2021/11/06 06:59:18;;;;;;;62.13;32.80;;;;;;;;;;4434500;32;20340;-55
2021/11/06 07:01:46;;;;;;;55.87;30.20;;;;;;;;;;4434483;32;20268;-56
2021/11/06 07:04:11;;;;;;;66.30;36.57;;;;;;;;;;4432988;32;20317;-55
2021/11/06 07:06:37;;;;;;;77.70;38.27;;;;;;;;;;4423254;32;20322;-56
2021/11/06 07:09:03;;;;;;;81.90;38.97;;;;;;;;;;4417913;32;20396;-57
2021/11/06 07:11:28;;;;;;;94.70;49.17;;;;;;;;;;4418926;32;20307;-56
2021/11/06 07:13:54;;;;;;;76.80;44.20;;;;;;;;;;4419258;32;20288;-56
2021/11/06 07:16:20;;;;;;;92.73;49.67;;;;;;;;;;4428051;32;20231;-56
2021/11/06 07:18:45;;;;;;;106.90;55.10;;;;;;;;;;4434418;32;20328;-56
2021/11/06 07:21:11;;;;;;;65.73;39.83;;;;;;;;;;4434313;32;20294;-56
2021/11/06 07:23:36;;;;;;;69.93;38.03;;;;;;;;;;4434384;32;20280;-56
2021/11/06 07:26:03;;;;;;;72.83;39.40;;;;;;;;;;4433687;32;20266;-55
2021/11/06 07:28:30;;;;;;;104.80;56.33;;;;;;;;;;4433640;32;20646;-56
2021/11/06 07:30:57;;;;;;;95.73;53.83;;;;;;;;;;4434121;32;20249;-56
2021/11/06 07:33:22;;;;;;;72.30;39.70;;;;;;;;;;4434569;32;20313;-57
2021/11/06 07:35:48;;;;;;;63.20;32.77;;;;;;;;;;4434048;32;20289;-56
2021/11/06 07:38:14;;;;;;;51.23;29.97;;;;;;;;;;4433928;32;20761;-56
2021/11/06 07:40:40;;;;;;;51.27;27.20;;;;;;;;;;4434568;32;20284;-56
2021/11/06 07:43:06;;;;;;;45.83;23.27;;;;;;;;;;4434479;32;20216;-56
2021/11/06 07:45:33;;;;;;;51.50;24.07;;;;;;;;;;4434354;32;20341;-55
2021/11/06 07:47:58;;;;;;;50.23;25.80;;;;;;;;;;4433573;32;20229;-55
2021/11/06 07:50:24;;;;;;;49.90;24.30;;;;;;;;;;4433843;32;20311;-55
2021/11/06 07:52:50;;;;;;;65.67;26.87;;;;;;;;;;4433539;32;20291;-55
2021/11/06 07:55:16;;;;;;;60.67;29.50;;;;;;;;;;4433884;32;20411;-55
2021/11/06 07:57:42;;;;;;;106.27;54.00;;;;;;;;;;4434228;32;20225;-56
2021/11/06 08:00:11;;;;;;;52.03;27.67;;;;;;;;;;4433578;32;20356;-57
2021/11/06 08:02:40;;;;;;;47.80;23.67;;;;;;;;;;4434036;32;20260;-56
2021/11/06 08:05:10;;;;;;;39.90;19.93;;;;;;;;;;4431302;32;20304;-56
2021/11/06 08:07:35;;;;;;;37.73;19.13;;;;;;;;;;4418679;32;20578;-56
2021/11/06 08:10:02;;;;;;;45.83;24.83;;;;;;;;;;4418559;32;20307;-56
2021/11/06 08:12:29;;;;;;;38.07;22.57;;;;;;;;;;4418936;32;20221;-54
2021/11/06 08:14:54;;;;;;;50.00;28.60;;;;;;;;;;4433645;32;20271;-55
2021/11/06 08:17:20;;;;;;;64.67;30.93;;;;;;;;;;4433108;32;20277;-56
2021/11/06 08:19:45;;;;;;;48.33;25.13;;;;;;;;;;4433133;32;20275;-56
2021/11/06 08:22:12;;;;;;;45.17;20.23;;;;;;;;;;4433247;32;20308;-56
2021/11/06 08:24:38;;;;;;;38.57;22.47;;;;;;;;;;4432964;32;20600;-56
2021/11/06 08:27:05;;;;;;;39.83;21.53;;;;;;;;;;4433649;32;20298;-56
2021/11/06 08:29:30;;;;;;;49.87;24.27;;;;;;;;;;4433683;32;20280;-57
2021/11/06 08:31:58;;;;;;;53.20;25.40;;;;;;;;;;4433048;32;20672;-57
2021/11/06 08:34:25;;;;;;;51.63;23.73;;;;;;;;;;4432371;32;20250;-56
2021/11/06 08:36:51;;;;;;;51.50;27.37;;;;;;;;;;4432392;32;20676;-55
2021/11/06 08:39:19;;;;;;;48.03;26.90;;;;;;;;;;4432840;32;20300;-56
2021/11/06 08:41:44;;;;;;;65.13;28.73;;;;;;;;;;4433141;32;20660;-55
2021/11/06 08:44:10;;;;;;;48.20;23.77;;;;;;;;;;4433430;32;20287;-57
2021/11/06 08:46:36;;;;;;;42.90;23.00;;;;;;;;;;4433404;32;20772;-56
2021/11/06 08:49:01;;;;;;;40.20;22.23;;;;;;;;;;4431228;32;20357;-56
2021/11/06 08:51:27;;;;;;;33.93;20.20;;;;;;;;;;4432469;32;20240;-55
2021/11/06 08:53:53;;;;;;;40.03;20.93;;;;;;;;;;4433469;32;20358;-58
2021/11/06 08:56:18;;;;;;;38.80;20.53;;;;;;;;;;4433257;32;20309;-58
2021/11/06 08:58:44;;;;;;;43.30;22.87;;;;;;;;;;4431904;32;20743;-58
2021/11/06 09:01:10;;;;;;;39.17;20.57;;;;;;;;;;4432458;32;20591;-57
2021/11/06 09:03:36;;;;;;;39.17;21.60;;;;;;;;;;4433380;32;20241;-57
2021/11/06 09:06:01;;;;;;;39.00;20.90;;;;;;;;;;4425906;32;20244;-57
2021/11/06 09:08:31;;;;;;;36.63;19.17;;;;;;;;;;4417965;32;20322;-58
2021/11/06 09:11:02;;;;;;;33.63;16.43;;;;;;;;;;4432192;32;20248;-56
2021/11/06 09:13:28;;;;;;;33.57;15.43;;;;;;;;;;4433387;32;20232;-57
2021/11/06 09:15:53;;;;;;;32.03;15.83;;;;;;;;;;4433241;32;20339;-57
2021/11/06 09:18:18;;;;;;;34.13;19.57;;;;;;;;;;4432735;32;20235;-56
2021/11/06 09:20:44;;;;;;;29.80;18.10;;;;;;;;;;4431645;32;20671;-57
2021/11/06 09:23:10;;;;;;;32.10;18.97;;;;;;;;;;4433079;32;20582;-57
2021/11/06 09:25:35;;;;;;;36.93;15.40;;;;;;;;;;4432589;32;20352;-55
2021/11/06 09:28:01;;;;;;;31.83;12.70;;;;;;;;;;4432093;32;20229;-56
2021/11/06 09:30:26;;;;;;;25.10;13.90;;;;;;;;;;4435933;32;20292;-56
2021/11/06 09:32:52;;;;;;;32.03;14.20;;;;;;;;;;4435738;32;20630;-56
2021/11/06 09:35:17;;;;;;;41.87;14.73;;;;;;;;;;4433860;32;20296;-57
2021/11/06 09:37:43;;;;;;;35.77;15.10;;;;;;;;;;4433335;32;20335;-56
2021/11/06 09:40:09;;;;;;;26.20;14.47;;;;;;;;;;4434540;32;20296;-56
2021/11/06 09:42:38;;;;;;;30.60;14.07;;;;;;;;;;4434479;32;20240;-57
2021/11/06 09:45:06;;;;;;;30.43;14.77;;;;;;;;;;4434175;32;20240;-57
2021/11/06 09:47:31;;;;;;;29.23;15.80;;;;;;;;;;4434467;32;20364;-56
2021/11/06 09:49:57;;;;;;;33.97;14.23;;;;;;;;;;4435977;32;20731;-59
2021/11/06 09:52:23;;;;;;;32.57;14.60;;;;;;;;;;4436499;32;20312;-57
2021/11/06 09:54:48;;;;;;;35.27;13.67;;;;;;;;;;4434941;32;20328;-57
2021/11/06 09:57:14;;;;;;;32.50;13.23;;;;;;;;;;4434633;32;20328;-58
2021/11/06 09:59:39;;;;;;;21.37;11.60;;;;;;;;;;4436022;32;20365;-57
2021/11/06 10:02:05;;;;;;;35.37;13.10;;;;;;;;;;4435765;32;20557;-57
2021/11/06 10:04:31;;;;;;;24.73;11.87;;;;;;;;;;4435932;32;20279;-58
2021/11/06 10:06:59;;;;;;;25.27;11.50;;;;;;;;;;4433886;32;20573;-57
2021/11/06 10:09:26;;;;;;;26.47;11.17;;;;;;;;;;4435570;32;20253;-57
2021/11/06 10:11:53;;;;;;;24.57;12.33;;;;;;;;;;4435715;32;20252;-56
2021/11/06 10:14:26;;;;;;;19.03;11.50;;;;;;;;;;4436062;32;20598;-56
2021/11/06 10:16:55;;;;;;;23.15;10.65;;;;;;;;;;4435445;32;20265;-56
2021/11/06 10:19:46;;;;;;;22.43;9.07;;;;;;;;;;4435377;32;20216;-56
2021/11/06 10:22:18;;;;;;;25.00;10.60;;;;;;;;;;4435804;32;20256;-57
2021/11/06 10:24:45;;;;;;;22.65;7.93;;;;;;;;;;4433730;32;20308;-56
2021/11/06 10:27:25;;;;;;;25.43;8.30;;;;;;;;;;4435730;32;20260;-56
2021/11/06 10:30:03;;;;;;;18.47;8.60;;;;;;;;;;4434902;32;20694;-57
2021/11/06 10:32:28;;;;;;;20.02;7.87;;;;;;;;;;4435519;32;20251;-56
2021/11/06 10:34:54;;;;;;;21.62;7.10;;;;;;;;;;4435134;32;20318;-57
2021/11/06 10:37:20;;;;;;;22.60;7.70;;;;;;;;;;4434127;32;20352;-58
2021/11/06 10:39:57;;;;;;;18.23;7.12;;;;;;;;;;4434347;32;20539;-56
2021/11/06 10:42:23;;;;;;;14.63;7.03;;;;;;;;;;4434739;32;20259;-55
2021/11/06 10:44:49;;;;;;;23.00;7.45;;;;;;;;;;4435521;32;20247;-56
2021/11/06 10:47:15;;;;;;;20.83;7.62;;;;;;;;;;4434888;32;20256;-57
2021/11/06 10:49:44;;;;;;;18.65;6.78;;;;;;;;;;4434700;32;20382;-56
2021/11/06 10:52:16;;;;;;;20.58;6.25;;;;;;;;;;4434834;32;20695;-56
2021/11/06 10:55:09;;;;;;;15.80;7.45;;;;;;;;;;4434725;32;20639;-57
2021/11/06 10:57:35;;;;;;;19.95;6.68;;;;;;;;;;4434224;32;20387;-57
2021/11/06 11:00:15;;;;;;;20.30;6.33;;;;;;;;;;4433131;32;20323;-58
2021/11/06 11:02:41;;;;;;;21.73;8.30;;;;;;;;;;4433980;32;20255;-55
2021/11/06 11:05:29;;;;;;;19.35;7.47;;;;;;;;;;4434369;32;20292;-56
2021/11/06 11:08:10;;;;;;;21.90;7.47;;;;;;;;;;4431575;32;20228;-57
2021/11/06 11:10:36;;;;;;;14.73;6.90;;;;;;;;;;4433203;32;20735;-56
2021/11/06 11:13:12;;;;;;;19.55;8.65;;;;;;;;;;4433965;32;20777;-55
2021/11/06 11:15:43;;;;;;;28.23;8.47;;;;;;;;;;4434324;32;20216;-57
2021/11/06 11:18:29;;;;;;;14.05;7.50;;;;;;;;;;4432834;32;20237;-56
2021/11/06 11:21:05;;;;;;;29.30;8.20;;;;;;;;;;4434533;32;20240;-56
2021/11/06 11:23:31;;;;;;;24.37;7.50;;;;;;;;;;4431790;32;20345;-57
2021/11/06 11:25:56;;;;;;;31.90;6.28;;;;;;;;;;4431180;32;20292;-57
2021/11/06 11:28:22;;;;;;;32.17;7.50;;;;;;;;;;4433198;32;20391;-58
2021/11/06 11:30:47;;;;;;;14.73;6.65;;;;;;;;;;4432854;32;20316;-59
2021/11/06 11:33:14;;;;;;;21.12;5.10;;;;;;;;;;4432907;32;20414;-56
2021/11/06 11:35:41;;;;;;;8.82;4.22;;;;;;;;;;4434600;32;20220;-57
2021/11/06 11:38:06;;;;;;;12.57;5.00;;;;;;;;;;4432449;32;20697;-57
2021/11/06 11:40:33;;;;;;;22.05;6.37;;;;;;;;;;4433994;32;20318;-57
2021/11/06 11:43:14;;;;;;;11.35;5.53;;;;;;;;;;4433751;32;20262;-56
2021/11/06 11:45:50;;;;;;;21.17;6.53;;;;;;;;;;4434298;32;20243;-56
2021/11/06 11:48:22;;;;;;;15.10;5.50;;;;;;;;;;4433631;32;20247;-57
2021/11/06 11:50:50;;;;;;;29.30;6.30;;;;;;;;;;4434118;32;20328;-56
2021/11/06 11:53:28;;;;;;;17.98;5.45;;;;;;;;;;4433227;32;20235;-56
2021/11/06 11:55:57;;;;;;;22.13;5.85;;;;;;;;;;4433884;32;20292;-57
2021/11/06 11:58:26;;;;;;;16.52;6.18;;;;;;;;;;4432100;32;20308;-57
2021/11/06 12:00:53;;;;;;;15.77;5.50;;;;;;;;;;4433488;32;20217;-57
2021/11/06 12:03:41;;;;;;;11.38;5.47;;;;;;;;;;4433614;32;20301;-57
2021/11/06 12:06:18;;;;;;;29.02;6.65;;;;;;;;;;4425830;32;20274;-57
2021/11/06 12:08:44;;;;;;;17.40;7.12;;;;;;;;;;4418542;32;20727;-57
2021/11/06 12:11:15;;;;;;;14.75;7.45;;;;;;;;;;4432608;32;20221;-56
2021/11/06 12:13:47;;;;;;;24.02;7.22;;;;;;;;;;4433741;32;20216;-57
2021/11/06 12:16:14;;;;;;;16.55;8.20;;;;;;;;;;4433421;32;20682;-58
2021/11/06 12:18:58;;;;;;;19.60;8.52;;;;;;;;;;4432122;32;20660;-56
2021/11/06 12:21:31;;;;;;;20.10;9.25;;;;;;;;;;4433552;32;20236;-57
2021/11/06 12:24:21;;;;;;;28.02;8.27;;;;;;;;;;4429335;32;20238;-55
2021/11/06 12:26:53;;;;;;;14.87;7.68;;;;;;;;;;4429124;32;20289;-57
2021/11/06 12:29:18;;;;;;;17.83;9.30;;;;;;;;;;4433251;32;20238;-56
2021/11/06 12:31:46;;;;;;;19.10;8.73;;;;;;;;;;4432190;32;20253;-55
2021/11/06 12:34:46;;;;;;;18.30;7.32;;;;;;;;;;4430712;32;20268;-57
2021/11/06 12:37:34;;;;;;;18.77;7.32;;;;;;;;;;4432845;32;20270;-56
2021/11/06 12:40:20;;;;;;;18.35;7.78;;;;;;;;;;4433018;32;20251;-56
2021/11/06 12:43:06;;;;;;;18.50;5.62;;;;;;;;;;4431747;32;20257;-57
2021/11/06 12:45:32;;;;;;;18.25;5.40;;;;;;;;;;4433197;32;20208;-55
2021/11/06 12:48:08;;;;;;;18.62;7.03;;;;;;;;;;4432532;32;20229;-55
2021/11/06 12:50:35;;;;;;;12.13;6.65;;;;;;;;;;4431711;32;20279;-57
2021/11/06 12:53:02;;;;;;;14.30;6.93;;;;;;;;;;4432530;32;20264;-55
2021/11/06 12:55:27;;;;;;;18.70;6.68;;;;;;;;;;4430725;32;20569;-56
2021/11/06 12:57:55;;;;;;;13.05;5.80;;;;;;;;;;4430829;32;20357;-56
2021/11/06 13:00:35;;;;;;;11.40;6.03;;;;;;;;;;4430619;32;20684;-57
2021/11/06 13:03:02;;;;;;;13.93;6.93;;;;;;;;;;4430960;32;20294;-56
2021/11/06 13:05:40;;;;;;;13.35;6.07;;;;;;;;;;4429767;32;20254;-57
2021/11/06 13:08:19;;;;;;;12.65;5.75;;;;;;;;;;4432214;32;20275;-56
2021/11/06 13:10:46;;;;;;;14.07;5.47;;;;;;;;;;4432524;32;20219;-57
2021/11/06 13:13:19;;;;;;;17.12;6.43;;;;;;;;;;4432654;32;20394;-56
2021/11/06 13:15:47;;;;;;;15.25;4.22;;;;;;;;;;4432870;32;20200;-57
2021/11/06 13:18:22;;;;;;;18.12;4.25;;;;;;;;;;4432757;32;20739;-57
2021/11/06 13:20:53;;;;;;;8.70;4.57;;;;;;;;;;4433026;32;20256;-56
2021/11/06 13:23:20;;;;;;;12.82;4.85;;;;;;;;;;4432803;32;20266;-55
2021/11/06 13:25:48;;;;;;;13.62;5.25;;;;;;;;;;4428481;32;20708;-57
2021/11/06 13:28:25;;;;;;;10.43;4.57;;;;;;;;;;4432276;32;20296;-57
2021/11/06 13:30:54;;;;;;;17.17;5.10;;;;;;;;;;4431262;32;20221;-56
2021/11/06 13:33:30;;;;;;;13.23;5.28;;;;;;;;;;4432383;32;20643;-56
2021/11/06 13:36:11;;;;;;;15.40;4.97;;;;;;;;;;4432457;32;20223;-55
2021/11/06 13:38:42;;;;;;;9.48;4.57;;;;;;;;;;4432688;32;20247;-56
2021/11/06 13:41:33;;;;;;;12.75;5.57;;;;;;;;;;4432212;32;20233;-57
2021/11/06 13:44:04;;;;;;;15.23;5.45;;;;;;;;;;4422822;32;20608;-57
2021/11/06 13:46:34;;;;;;;15.60;4.62;;;;;;;;;;4431931;32;20285;-57
2021/11/06 13:49:09;;;;;;;12.98;6.75;;;;;;;;;;4432119;32;20212;-56
2021/11/06 13:51:45;;;;;;;12.18;5.22;;;;;;;;;;4432920;32;20303;-57
2021/11/06 13:54:19;;;;;;;10.43;5.00;;;;;;;;;;4432504;32;20216;-56
2021/11/06 13:56:56;;;;;;;10.50;4.72;;;;;;;;;;4432871;32;20240;-55
2021/11/06 13:59:28;;;;;;;10.70;4.57;;;;;;;;;;4432689;32;20396;-56
2021/11/06 14:01:54;;;;;;;8.32;4.97;;;;;;;;;;4432526;32;20425;-56
2021/11/06 14:04:21;;;;;;;13.43;5.82;;;;;;;;;;4432685;32;20213;-56
2021/11/06 14:06:50;;;;;;;13.82;5.68;;;;;;;;;;4431375;32;20291;-57
2021/11/06 14:09:17;;;;;;;10.77;5.07;;;;;;;;;;4431960;32;20605;-56
2021/11/06 14:11:47;;;;;;;26.73;7.43;;;;;;;;;;4432672;32;20395;-57
2021/11/06 14:14:12;;;;;;;16.15;6.05;;;;;;;;;;4432713;32;20690;-57
2021/11/06 14:16:38;;;;;;;18.67;8.35;;;;;;;;;;4434767;32;20256;-57
2021/11/06 14:19:08;;;;;;;20.12;7.03;;;;;;;;;;4432857;32;20327;-57
2021/11/06 14:21:39;;;;;;;32.25;19.75;;;;;;;;;;4433090;32;20295;-56
2021/11/06 14:24:09;;;;;;;40.05;16.45;;;;;;;;;;4430573;32;20229;-58